Time;durP1;ratioP1;P1;durP2;ratioP2;P2;SDS_P1;SDS_P2;PMS_P1;PMS_P2;Temp;Humidity;BMP_temperature;BMP_pressure;BME280_temperature;BME280_humidity;BME280_pressure;Samples;Min_cycle;Max_cycle;Signal;HPM_P1;HPM_P2
2021/07/21 06:44:00;;;;;;;10.98;5.95;;;;;;;17.90;58.34;100406.94;2205065;40;20031;-83
2021/07/21 06:55:24;;;;;;;8.15;5.43;;;;;;;18.33;57.73;100400.06;2209561;40;20037;-80
2021/07/21 06:57:54;;;;;;;7.55;4.72;;;;;;;18.62;57.07;100403.78;2217792;40;20029;-81
2021/07/21 07:02:20;;;;;;;9.68;6.60;;;;;;;18.84;56.76;100408.22;2201997;40;20092;-80
2021/07/21 07:11:44;;;;;;;9.68;5.30;;;;;;;19.42;55.34;100411.97;2221955;40;20045;-79
2021/07/21 07:23:42;;;;;;;12.43;6.10;;;;;;;20.16;53.81;100416.16;2153226;41;20058;-80
2021/07/21 07:32:18;;;;;;;11.57;5.78;;;;;;;20.61;52.62;100413.03;2139963;41;20102;-80
2021/07/21 07:33:57;;;;;;;11.32;6.22;;;;;;;20.51;52.62;100402.56;2142077;41;20480;-80
2021/07/21 07:35:29;;;;;;;14.27;5.80;;;;;;;20.61;52.40;100406.78;2141521;41;20047;-81
2021/07/21 07:37:01;;;;;;;11.60;5.75;;;;;;;20.74;52.35;100404.13;2155832;41;20505;-78
2021/07/21 07:38:33;;;;;;;9.98;5.75;;;;;;;20.85;52.13;100398.09;2178117;40;20047;-78
2021/07/21 07:40:08;;;;;;;10.95;6.07;;;;;;;21.02;51.47;100398.59;2187504;40;20031;-79
2021/07/21 07:41:41;;;;;;;10.52;5.72;;;;;;;20.99;51.58;100396.25;2210664;40;20042;-78
2021/07/21 07:43:13;;;;;;;12.80;6.43;;;;;;;20.94;51.74;100392.47;2207906;40;20448;-78
2021/07/21 07:44:45;;;;;;;13.10;6.25;;;;;;;20.92;51.70;100398.13;2206030;40;20326;-79
2021/07/21 07:46:17;;;;;;;11.98;6.75;;;;;;;20.97;51.65;100392.91;2205700;40;20073;-77
2021/07/21 07:47:50;;;;;;;11.18;6.30;;;;;;;20.98;51.70;100386.44;2208076;40;20402;-78
2021/07/21 07:49:22;;;;;;;9.82;6.55;;;;;;;20.99;51.38;100393.53;2206762;40;20022;-78
2021/07/21 07:50:54;;;;;;;9.73;6.40;;;;;;;21.02;51.76;100393.16;2213180;40;20127;-79
2021/07/21 07:52:28;;;;;;;12.93;5.95;;;;;;;21.18;51.46;100391.06;2211753;40;20041;-78
2021/07/21 07:54:01;;;;;;;9.73;6.00;;;;;;;21.25;51.16;100381.06;2210043;40;20158;-77
2021/07/21 07:55:36;;;;;;;11.50;5.55;;;;;;;21.40;51.15;100380.03;2212398;40;20663;-80
2021/07/21 07:57:08;;;;;;;12.38;7.75;;;;;;;21.57;50.81;100386.72;2212213;40;20034;-77
2021/07/21 07:58:41;;;;;;;9.88;6.70;;;;;;;21.64;50.81;100378.59;2212220;40;20052;-81
2021/07/21 08:00:22;;;;;;;9.07;6.10;;;;;;;21.80;50.23;100382.78;2211242;40;20070;-78
2021/07/21 08:01:54;;;;;;;11.02;5.80;;;;;;;21.92;49.93;100378.34;2218161;40;20074;-80
2021/07/21 08:03:25;;;;;;;10.82;6.35;;;;;;;21.95;50.07;100377.94;2212280;40;20045;-80
2021/07/21 08:04:57;;;;;;;13.52;6.07;;;;;;;22.04;49.20;100380.44;2214557;40;20108;-79
2021/07/21 08:06:29;;;;;;;11.35;6.53;;;;;;;22.01;49.60;100378.97;2206879;40;20151;-79
2021/07/21 08:08:01;;;;;;;11.02;6.05;;;;;;;22.05;49.37;100373.94;2208041;40;20039;-79
2021/07/21 08:10:03;;;;;;;11.57;6.05;;;;;;;22.19;49.09;100367.41;2208935;40;20074;-79
2021/07/21 08:12:24;;;;;;;12.38;6.05;;;;;;;22.51;48.38;100362.09;2209376;40;20034;-80
2021/07/21 08:14:47;;;;;;;9.15;5.70;;;;;;;22.50;48.18;100368.56;2199653;40;20042;-81
2021/07/21 08:19:26;;;;;;;7.32;4.82;;;;;;;22.67;47.65;100370.84;2212159;40;20418;-79
2021/07/21 08:21:23;;;;;;;9.40;5.90;;;;;;;23.00;46.98;100375.25;2217266;40;20052;-81
2021/07/21 08:22:55;;;;;;;8.85;5.72;;;;;;;23.16;46.59;100365.72;2219372;40;20475;-81
2021/07/21 08:24:33;;;;;;;7.53;5.18;;;;;;;23.29;46.22;100362.09;2220554;40;20045;-82
2021/07/21 08:26:07;;;;;;;9.43;5.88;;;;;;;23.60;45.38;100357.63;2218192;40;20025;-79
2021/07/21 08:27:39;;;;;;;9.93;5.40;;;;;;;23.69;44.98;100361.75;2209141;40;20042;-80
2021/07/21 08:29:12;;;;;;;9.40;6.03;;;;;;;23.88;44.93;100361.78;2214345;40;20041;-80
2021/07/21 08:31:09;;;;;;;12.60;5.75;;;;;;;24.07;44.17;100355.31;2214302;40;20079;-85
2021/07/21 08:35:39;;;;;;;10.50;5.60;;;;;;;23.68;44.58;100360.09;2172594;40;20052;-82
2021/07/21 08:37:41;;;;;;;8.48;5.38;;;;;;;23.64;44.64;100347.94;2198516;40;20035;-82
2021/07/21 08:39:23;;;;;;;8.90;5.32;;;;;;;23.74;44.31;100352.91;2205625;40;20033;-80
2021/07/21 08:41:03;;;;;;;10.35;4.95;;;;;;;23.94;44.23;100349.94;2209752;40;20113;-83
2021/07/21 08:42:35;;;;;;;8.65;5.57;;;;;;;24.24;43.37;100354.69;2209692;40;20031;-82
2021/07/21 08:44:09;;;;;;;9.15;5.93;;;;;;;24.42;42.99;100351.97;2209575;40;20051;-83
2021/07/21 08:45:42;;;;;;;8.38;5.28;;;;;;;24.33;43.09;100355.22;2203370;40;20059;-83
2021/07/21 08:47:17;;;;;;;9.48;6.78;;;;;;;24.50;42.75;100352.69;2207901;40;20025;-82
2021/07/21 08:48:52;;;;;;;7.35;4.93;;;;;;;24.77;41.92;100342.28;2209294;40;20026;-82
2021/07/21 08:50:24;;;;;;;8.57;5.43;;;;;;;24.91;40.74;100348.41;2216535;40;20113;-81
2021/07/21 08:52:01;;;;;;;16.23;10.15;;;;;;;24.58;41.91;100344.19;2216129;40;20018;-81
2021/07/21 08:53:36;;;;;;;8.73;6.03;;;;;;;24.57;42.31;100350.72;2214632;40;20129;-79
2021/07/21 08:55:14;;;;;;;12.00;5.70;;;;;;;24.78;41.69;100346.69;2209499;40;20041;-84
2021/07/21 08:58:24;;;;;;;8.85;5.60;;;;;;;25.13;40.85;100351.44;2215214;40;20640;-84
2021/07/21 08:59:57;;;;;;;9.63;5.32;;;;;;;25.08;40.32;100352.13;2218766;40;20041;-82
2021/07/21 09:01:29;;;;;;;8.45;5.13;;;;;;;25.20;40.07;100348.59;2219722;40;20036;-81
2021/07/21 09:03:04;;;;;;;7.65;5.28;;;;;;;25.19;40.46;100345.00;2218087;40;20018;-81
2021/07/21 09:04:36;;;;;;;7.22;4.53;;;;;;;25.45;40.11;100339.38;2214237;40;20026;-83
2021/07/21 09:06:08;;;;;;;7.72;4.80;;;;;;;25.63;39.37;100342.00;2211353;40;20041;-80
2021/07/21 09:07:41;;;;;;;8.20;5.70;;;;;;;25.79;38.96;100348.66;2214256;40;20035;-80
2021/07/21 09:09:13;;;;;;;7.63;5.45;;;;;;;25.77;38.93;100353.53;2212410;40;20028;-82
2021/07/21 09:10:46;;;;;;;12.35;6.10;;;;;;;25.64;38.79;100342.84;2207860;40;20049;-80
2021/07/21 09:12:18;;;;;;;7.85;5.43;;;;;;;25.44;38.92;100354.97;2208535;40;20037;-82
2021/07/21 09:13:49;;;;;;;7.78;5.63;;;;;;;25.31;39.54;100342.31;2208801;40;20276;-81
2021/07/21 09:15:22;;;;;;;10.45;6.03;;;;;;;25.40;39.61;100355.69;2214507;40;20057;-83
2021/07/21 09:17:05;;;;;;;8.15;5.30;;;;;;;25.62;39.21;100350.47;2212730;40;20034;-83
2021/07/21 09:18:52;;;;;;;10.52;5.25;;;;;;;25.93;38.70;100348.44;2215390;40;20104;-83
2021/07/21 09:20:23;;;;;;;9.77;4.85;;;;;;;25.98;38.20;100349.34;2209186;40;20095;-83
2021/07/21 09:22:13;;;;;;;9.93;5.30;;;;;;;26.11;37.80;100342.84;2209736;40;20059;-82
2021/07/21 09:23:46;;;;;;;9.18;5.63;;;;;;;26.31;37.28;100350.66;2208578;40;20066;-82
2021/07/21 09:25:20;;;;;;;8.75;5.35;;;;;;;26.41;37.53;100340.97;2209096;40;20045;-82
2021/07/21 09:26:52;;;;;;;8.15;5.18;;;;;;;26.14;37.01;100344.25;2209846;40;20026;-82
2021/07/21 09:28:33;;;;;;;11.20;5.68;;;;;;;26.08;37.43;100350.66;2209164;40;20030;-82
2021/07/21 09:30:06;;;;;;;9.20;5.45;;;;;;;26.04;37.48;100346.75;2214316;40;20038;-82
2021/07/21 09:31:43;;;;;;;8.35;5.38;;;;;;;26.23;36.81;100344.69;2214708;40;20065;-80
2021/07/21 09:33:17;;;;;;;8.32;5.80;;;;;;;26.30;36.62;100351.72;2208738;40;20033;-81
2021/07/21 09:34:52;;;;;;;8.60;5.63;;;;;;;26.18;37.35;100341.88;2208653;40;20031;-82
2021/07/21 09:36:24;;;;;;;8.98;5.68;;;;;;;26.36;36.90;100349.06;2211130;40;20050;-82
2021/07/21 09:37:59;;;;;;;10.27;5.63;;;;;;;26.54;36.46;100346.19;2207664;40;20035;-81
2021/07/21 09:39:35;;;;;;;7.38;5.13;;;;;;;26.82;36.01;100340.97;2205803;40;20042;-82
2021/07/21 09:41:07;;;;;;;9.32;5.82;;;;;;;27.08;35.83;100347.75;2208061;40;20093;-83
2021/07/21 09:42:38;;;;;;;11.00;5.45;;;;;;;27.16;34.98;100341.03;2213469;40;20033;-80
2021/07/21 09:44:10;;;;;;;9.07;5.60;;;;;;;27.08;35.09;100337.59;2215777;40;20096;-81
2021/07/21 09:45:43;;;;;;;8.20;5.30;;;;;;;27.25;35.09;100340.34;2212429;40;20022;-84
2021/07/21 09:47:16;;;;;;;7.82;5.35;;;;;;;27.51;34.55;100348.19;2215680;40;20025;-83
2021/07/21 09:48:49;;;;;;;7.43;4.68;;;;;;;27.87;33.76;100352.28;2211361;40;20060;-85
2021/07/21 09:50:24;;;;;;;9.75;5.63;;;;;;;28.05;33.28;100339.38;2208291;40;20030;-83
2021/07/21 09:52:14;;;;;;;8.68;5.13;;;;;;;27.79;33.39;100339.00;2210213;40;20018;-83
2021/07/21 09:53:49;;;;;;;9.05;6.18;;;;;;;27.75;33.40;100335.13;2209013;40;20404;-82
2021/07/21 09:55:21;;;;;;;17.48;7.63;;;;;;;27.73;33.74;100345.50;2211409;40;20050;-82
2021/07/21 09:56:54;;;;;;;14.27;6.68;;;;;;;27.87;33.49;100340.50;2208877;40;20037;-83
2021/07/21 09:58:34;;;;;;;10.27;6.07;;;;;;;27.85;32.53;100340.75;2203183;40;20061;-84
2021/07/21 10:00:19;;;;;;;8.73;5.72;;;;;;;27.66;32.63;100333.88;2202695;40;20027;-83
2021/07/21 10:01:53;;;;;;;8.15;5.57;;;;;;;27.49;33.01;100345.69;2199754;40;20023;-82
2021/07/21 10:03:26;;;;;;;9.40;5.40;;;;;;;27.17;33.43;100343.50;2202308;40;20030;-83
2021/07/21 10:04:57;;;;;;;10.13;5.22;;;;;;;27.38;33.48;100338.38;2206575;40;20146;-82
2021/07/21 10:06:38;;;;;;;8.52;4.93;;;;;;;27.87;32.80;100338.56;2202777;40;20059;-84
2021/07/21 10:08:25;;;;;;;9.65;5.20;;;;;;;28.31;31.99;100332.28;2206682;40;20034;-83
2021/07/21 10:09:57;;;;;;;9.18;5.85;;;;;;;28.49;31.97;100336.63;2207841;40;20055;-82
2021/07/21 10:11:29;;;;;;;8.35;5.72;;;;;;;28.30;32.15;100338.88;2206773;40;20030;-83
2021/07/21 10:13:05;;;;;;;8.82;5.57;;;;;;;28.17;31.63;100339.28;2201867;40;20041;-82
2021/07/21 10:14:37;;;;;;;7.25;4.90;;;;;;;28.05;31.34;100336.63;2204128;40;20039;-83
2021/07/21 10:16:07;;;;;;;8.70;5.40;;;;;;;28.36;30.63;100330.72;2203004;40;20027;-81
2021/07/21 10:17:39;;;;;;;8.32;4.85;;;;;;;28.36;30.56;100337.03;2205251;40;20049;-83
2021/07/21 10:19:15;;;;;;;9.85;5.43;;;;;;;28.59;30.46;100335.09;2202069;40;20040;-82
2021/07/21 10:20:45;;;;;;;10.25;6.05;;;;;;;28.53;30.61;100336.13;2202472;40;20031;-83
2021/07/21 10:22:19;;;;;;;8.70;5.50;;;;;;;28.28;31.60;100330.09;2201370;40;20051;-82
2021/07/21 10:23:50;;;;;;;7.68;5.35;;;;;;;27.95;32.34;100331.81;2207909;40;20046;-82
2021/07/21 10:25:23;;;;;;;9.50;5.57;;;;;;;27.82;32.92;100333.00;2209136;40;20034;-82
2021/07/21 10:26:55;;;;;;;8.57;5.00;;;;;;;27.96;32.80;100325.25;2207193;40;20035;-82
2021/07/21 10:28:28;;;;;;;7.65;5.35;;;;;;;28.38;31.80;100332.09;2206281;40;20542;-82
2021/07/21 10:29:59;;;;;;;7.57;4.97;;;;;;;28.58;31.90;100325.19;2208935;40;20030;-82
2021/07/21 10:31:31;;;;;;;9.38;4.82;;;;;;;28.96;31.61;100334.41;2203728;40;20034;-81
2021/07/21 10:33:03;;;;;;;7.72;5.20;;;;;;;29.19;31.29;100335.97;2203411;40;20031;-82
2021/07/21 10:34:36;;;;;;;7.43;4.85;;;;;;;29.42;30.81;100329.31;2206623;40;20054;-82
2021/07/21 10:36:10;;;;;;;9.43;5.80;;;;;;;29.51;30.56;100339.81;2207230;40;20061;-82
2021/07/21 10:37:44;;;;;;;8.80;5.57;;;;;;;29.39;30.40;100329.81;2206648;40;20039;-82
2021/07/21 10:39:18;;;;;;;6.80;5.07;;;;;;;29.27;30.57;100324.47;2208305;40;20033;-82
2021/07/21 10:40:50;;;;;;;10.43;5.65;;;;;;;29.19;31.09;100324.97;2202628;40;20030;-83
2021/07/21 10:42:23;;;;;;;8.48;5.68;;;;;;;28.93;30.94;100330.25;2208339;40;20516;-82
2021/07/21 10:43:55;;;;;;;7.70;4.90;;;;;;;28.90;31.10;100324.44;2205478;40;20334;-83
2021/07/21 10:45:31;;;;;;;9.85;5.75;;;;;;;29.45;30.34;100322.44;2208162;40;20081;-83
2021/07/21 10:47:21;;;;;;;8.02;5.55;;;;;;;29.25;29.94;100317.59;2205401;40;20039;-81
2021/07/21 10:48:56;;;;;;;13.63;5.85;;;;;;;29.27;30.50;100318.97;2203413;40;20042;-81
2021/07/21 10:50:38;;;;;;;7.93;5.40;;;;;;;29.31;30.32;100327.53;2207856;40;20026;-82
2021/07/21 10:52:42;;;;;;;7.93;5.35;;;;;;;29.51;29.83;100317.78;2202690;40;20049;-82
2021/07/21 10:54:28;;;;;;;7.70;5.32;;;;;;;29.56;30.33;100323.34;2201600;40;20535;-81
2021/07/21 11:00:17;;;;;;;8.88;6.15;;;;;;;28.12;32.08;100326.31;2208839;40;19937;-81
2021/07/21 11:01:51;;;;;;;9.07;6.35;;;;;;;27.59;33.28;100325.81;2208495;40;20401;-82
2021/07/21 11:03:25;;;;;;;8.98;5.65;;;;;;;27.37;33.56;100325.72;2210021;40;20433;-83
2021/07/21 11:04:56;;;;;;;9.93;5.10;;;;;;;27.58;33.50;100315.09;2215271;40;20034;-81
2021/07/21 11:06:37;;;;;;;7.25;4.95;;;;;;;27.75;33.40;100306.81;2211165;40;20037;-81
2021/07/21 11:08:18;;;;;;;7.78;5.00;;;;;;;27.87;33.02;100310.28;2214959;40;20057;-83
2021/07/21 11:09:51;;;;;;;8.20;5.45;;;;;;;27.90;32.93;100304.28;2210846;40;20033;-82
2021/07/21 11:11:25;;;;;;;8.20;5.70;;;;;;;27.91;32.86;100307.84;2208177;40;20050;-83
2021/07/21 11:12:56;;;;;;;8.27;5.57;;;;;;;27.71;33.47;100314.72;2210355;40;20058;-82
2021/07/21 11:14:30;;;;;;;9.73;5.57;;;;;;;27.53;33.37;100310.34;2207754;40;20054;-83
2021/07/21 11:16:04;;;;;;;12.15;6.40;;;;;;;27.41;33.59;100299.41;2210538;40;20030;-82
2021/07/21 11:17:36;;;;;;;9.73;5.97;;;;;;;27.52;33.72;100311.44;2204249;40;20050;-82
2021/07/21 11:19:27;;;;;;;9.52;6.18;;;;;;;27.64;32.81;100311.34;2210388;40;20040;-80
2021/07/21 11:21:01;;;;;;;8.65;5.82;;;;;;;27.58;33.31;100315.09;2208630;40;20092;-83
2021/07/21 11:22:33;;;;;;;11.60;5.43;;;;;;;27.43;33.12;100308.28;2208564;40;20033;-84
2021/07/21 11:24:12;;;;;;;9.10;5.90;;;;;;;27.12;33.19;100302.25;2206815;40;20038;-83
2021/07/21 11:25:44;;;;;;;9.43;6.78;;;;;;;26.83;34.08;100299.56;2209678;40;20049;-83
2021/07/21 11:27:37;;;;;;;8.85;5.88;;;;;;;27.01;33.57;100303.19;2207979;40;20049;-82
2021/07/21 11:29:47;;;;;;;7.90;5.68;;;;;;;27.13;33.80;100303.91;2209726;40;20049;-82
2021/07/21 11:31:19;;;;;;;10.47;6.70;;;;;;;27.25;33.77;100304.69;2207643;40;20042;-83
2021/07/21 11:32:50;;;;;;;9.55;6.28;;;;;;;26.88;33.83;100307.91;2208020;40;20262;-85
2021/07/21 11:34:28;;;;;;;10.52;6.50;;;;;;;26.70;34.10;100313.56;2207970;40;20026;-83
2021/07/21 11:35:59;;;;;;;8.00;5.45;;;;;;;26.71;34.00;100304.28;2208214;40;20027;-82
2021/07/21 11:37:35;;;;;;;9.38;5.60;;;;;;;26.82;33.72;100303.41;2208224;40;20038;-80
2021/07/21 11:39:07;;;;;;;8.02;5.40;;;;;;;26.86;33.63;100315.53;2209336;40;20045;-80
2021/07/21 11:40:45;;;;;;;9.00;5.50;;;;;;;26.83;33.82;100299.56;2214320;40;20038;-81
2021/07/21 11:42:35;;;;;;;17.02;9.93;;;;;;;26.82;34.04;100308.91;2208137;40;20037;-82
2021/07/21 11:44:05;;;;;;;10.38;7.25;;;;;;;26.77;34.54;100303.31;2207892;40;20067;-81
2021/07/21 11:45:37;;;;;;;7.90;6.03;;;;;;;26.61;34.60;100302.16;2209221;40;20069;-82
2021/07/21 11:47:12;;;;;;;9.60;6.72;;;;;;;26.52;35.07;100303.63;2215109;40;20377;-81
2021/07/21 11:48:46;;;;;;;9.98;6.40;;;;;;;26.61;34.54;100297.53;2212166;40;20034;-81
2021/07/21 11:50:20;;;;;;;9.82;5.95;;;;;;;26.66;34.86;100296.78;2208235;40;20037;-84
2021/07/21 11:51:54;;;;;;;9.65;6.43;;;;;;;26.87;34.29;100292.53;2208518;40;20035;-81
2021/07/21 11:53:26;;;;;;;10.18;6.07;;;;;;;26.96;34.08;100286.63;2208010;40;20046;-82
2021/07/21 11:54:57;;;;;;;11.95;6.15;;;;;;;27.00;34.10;100287.81;2208206;40;20043;-82
2021/07/21 11:56:31;;;;;;;9.00;5.70;;;;;;;27.01;33.87;100286.72;2207829;40;20039;-84
2021/07/21 11:58:11;;;;;;;9.80;6.50;;;;;;;26.91;34.11;100293.72;2207285;40;20038;-81
2021/07/21 11:59:44;;;;;;;11.47;6.47;;;;;;;26.60;34.59;100286.78;2213904;40;20042;-81
2021/07/21 12:01:26;;;;;;;9.73;6.68;;;;;;;26.45;34.73;100293.66;2209990;40;20293;-81
2021/07/21 12:03:01;;;;;;;8.80;5.78;;;;;;;26.60;34.90;100284.03;2213463;40;20026;-83
2021/07/21 12:04:34;;;;;;;9.18;6.78;;;;;;;26.74;34.81;100284.56;2208091;40;20048;-81
2021/07/21 12:06:05;;;;;;;10.93;5.93;;;;;;;26.83;34.78;100283.13;2209925;40;20042;-82
2021/07/21 12:07:38;;;;;;;11.23;6.15;;;;;;;26.83;34.98;100288.59;2210238;40;20097;-81
2021/07/21 12:09:09;;;;;;;11.57;6.28;;;;;;;26.61;35.18;100278.34;2207691;40;20034;-84
2021/07/21 12:10:43;;;;;;;7.75;6.05;;;;;;;26.29;35.43;100292.50;2210653;40;20058;-84
2021/07/21 12:12:18;;;;;;;8.55;6.25;;;;;;;26.22;35.20;100283.63;2210618;40;20058;-82
2021/07/21 12:13:58;;;;;;;7.90;5.68;;;;;;;26.28;35.37;100279.88;2209828;40;20038;-80
2021/07/21 12:15:30;;;;;;;13.53;6.07;;;;;;;26.33;35.01;100273.69;2206314;40;20038;-84
2021/07/21 12:17:09;;;;;;;8.13;5.68;;;;;;;26.37;35.29;100279.50;2208328;40;20272;-82
2021/07/21 12:18:40;;;;;;;11.27;6.43;;;;;;;26.47;34.75;100276.94;2213556;40;20090;-83
2021/07/21 12:20:14;;;;;;;9.63;5.90;;;;;;;26.44;35.08;100277.47;2211984;40;20070;-81
2021/07/21 12:21:45;;;;;;;8.05;5.88;;;;;;;26.48;35.37;100270.41;2207904;40;20034;-81
2021/07/21 12:23:21;;;;;;;8.40;5.80;;;;;;;26.58;35.05;100270.59;2209072;40;20045;-85
2021/07/21 12:24:58;;;;;;;9.30;6.00;;;;;;;26.73;34.71;100271.97;2207495;40;20058;-82
2021/07/21 12:26:43;;;;;;;13.73;6.57;;;;;;;26.85;34.16;100275.47;2206935;40;20042;-83
2021/07/21 12:28:16;;;;;;;11.15;6.50;;;;;;;26.87;34.07;100273.31;2207384;40;20031;-82
2021/07/21 12:29:48;;;;;;;11.48;6.10;;;;;;;26.83;34.21;100276.81;2208087;40;20031;-81
2021/07/21 12:31:25;;;;;;;8.98;5.82;;;;;;;26.83;34.14;100272.16;2207178;40;20422;-81
2021/07/21 12:32:57;;;;;;;8.88;6.13;;;;;;;26.88;33.97;100272.25;2207897;40;20141;-81
2021/07/21 12:34:28;;;;;;;10.00;6.43;;;;;;;26.92;33.83;100278.06;2209051;40;20022;-80
2021/07/21 12:36:06;;;;;;;8.73;6.07;;;;;;;26.98;33.93;100273.50;2206775;40;20043;-80
2021/07/21 12:37:44;;;;;;;8.75;6.28;;;;;;;27.02;33.64;100274.66;2206974;40;20047;-80
2021/07/21 12:39:23;;;;;;;10.35;5.97;;;;;;;27.02;33.70;100270.00;2206933;40;20042;-81
2021/07/21 12:40:55;;;;;;;9.85;6.38;;;;;;;27.06;33.74;100262.94;2209454;40;20038;-79
2021/07/21 12:42:28;;;;;;;7.63;5.47;;;;;;;27.08;33.76;100273.69;2212488;40;20045;-80
2021/07/21 12:44:12;;;;;;;11.05;6.32;;;;;;;27.12;33.45;100263.84;2207073;40;20034;-80
2021/07/21 12:45:44;;;;;;;9.48;5.55;;;;;;;27.09;33.68;100270.66;2202696;40;20038;-80
2021/07/21 12:47:17;;;;;;;10.40;6.18;;;;;;;27.14;33.45;100264.44;2206728;40;20041;-80
2021/07/21 12:48:49;;;;;;;10.77;6.22;;;;;;;27.15;33.29;100262.53;2207010;40;20109;-81
2021/07/21 12:50:23;;;;;;;8.85;6.03;;;;;;;27.17;33.56;100258.47;2208855;40;20061;-81
2021/07/21 12:51:54;;;;;;;11.30;6.03;;;;;;;27.24;33.02;100250.88;2209135;40;20041;-79
2021/07/21 12:53:32;;;;;;;12.48;6.35;;;;;;;27.33;33.33;100264.19;2209872;40;20069;-81
2021/07/21 12:55:06;;;;;;;11.57;6.10;;;;;;;27.23;33.48;100260.19;2213530;40;20096;-81
2021/07/21 12:56:37;;;;;;;8.90;6.15;;;;;;;27.27;33.40;100263.25;2209974;40;20618;-84
2021/07/21 12:58:11;;;;;;;15.63;6.55;;;;;;;27.23;33.42;100267.59;2208968;40;20050;-82
2021/07/21 12:59:45;;;;;;;10.05;6.00;;;;;;;27.11;33.26;100273.19;2209786;40;20050;-82
2021/07/21 13:01:24;;;;;;;9.18;5.75;;;;;;;27.10;32.92;100260.56;2209638;40;20038;-80
2021/07/21 13:03:02;;;;;;;8.13;5.80;;;;;;;27.07;32.45;100261.84;2211193;40;20042;-82
2021/07/21 13:04:34;;;;;;;8.50;5.70;;;;;;;27.03;32.93;100263.44;2208600;40;20084;-82
2021/07/21 13:06:06;;;;;;;7.60;5.65;;;;;;;27.11;32.36;100251.25;2210984;40;20041;-81
2021/07/21 13:07:37;;;;;;;10.18;5.85;;;;;;;27.19;32.38;100259.03;2209218;40;20027;-81
2021/07/21 13:09:09;;;;;;;9.68;5.75;;;;;;;27.17;32.52;100258.47;2209760;40;20041;-81
2021/07/21 13:10:42;;;;;;;9.88;5.70;;;;;;;27.21;32.17;100256.88;2215523;40;20134;-81
2021/07/21 13:12:18;;;;;;;9.52;5.90;;;;;;;27.20;31.93;100255.22;2213660;40;20030;-80
2021/07/21 13:13:53;;;;;;;9.65;6.05;;;;;;;27.16;31.90;100247.75;2209245;40;20034;-82
2021/07/21 13:15:28;;;;;;;9.25;5.15;;;;;;;27.19;31.72;100245.34;2208346;40;20070;-82
2021/07/21 13:17:09;;;;;;;10.25;5.88;;;;;;;27.12;31.88;100252.06;2214636;40;20538;-80
2021/07/21 13:18:42;;;;;;;7.95;5.53;;;;;;;27.05;31.85;100249.47;2214058;40;20697;-81
2021/07/21 13:20:15;;;;;;;8.15;5.68;;;;;;;27.17;32.47;100247.50;2209472;40;20177;-81
2021/07/21 13:21:50;;;;;;;13.68;6.05;;;;;;;27.30;32.18;100251.78;2210474;40;20038;-82
2021/07/21 13:23:24;;;;;;;8.23;5.40;;;;;;;27.19;32.71;100248.06;2214525;40;20157;-82
2021/07/21 13:24:55;;;;;;;8.48;5.10;;;;;;;27.13;33.21;100242.75;2210486;40;20038;-81
2021/07/21 13:26:28;;;;;;;7.80;4.93;;;;;;;27.07;33.26;100250.88;2216301;40;20038;-82
2021/07/21 13:28:17;;;;;;;8.10;5.43;;;;;;;27.11;33.00;100248.50;2212362;40;20041;-81
2021/07/21 13:29:49;;;;;;;9.45;5.53;;;;;;;27.09;33.05;100239.69;2209272;40;20077;-81
2021/07/21 13:31:24;;;;;;;7.65;5.68;;;;;;;27.11;32.78;100234.78;2211211;40;20030;-82
2021/07/21 13:33:08;;;;;;;7.43;5.20;;;;;;;27.19;32.68;100239.00;2209584;40;20031;-82
2021/07/21 13:34:44;;;;;;;8.32;5.60;;;;;;;27.22;32.82;100236.56;2210831;40;20054;-82
2021/07/21 13:36:17;;;;;;;9.05;5.85;;;;;;;27.14;32.68;100234.25;2208936;40;20477;-82
2021/07/21 13:37:56;;;;;;;6.38;4.72;;;;;;;27.11;32.94;100228.44;2209249;40;20068;-81
2021/07/21 13:39:38;;;;;;;9.52;5.55;;;;;;;27.17;32.64;100225.53;2209334;40;20062;-83
2021/07/21 13:41:09;;;;;;;8.88;6.07;;;;;;;27.14;32.55;100231.50;2209937;40;20038;-82
2021/07/21 13:42:41;;;;;;;8.13;5.45;;;;;;;27.04;32.59;100228.63;2212842;40;20030;-80
2021/07/21 13:44:17;;;;;;;8.15;5.75;;;;;;;27.05;33.16;100230.28;2213493;40;20046;-80
2021/07/21 13:45:48;;;;;;;9.65;5.70;;;;;;;27.14;32.85;100226.03;2211016;40;20308;-81
2021/07/21 13:47:28;;;;;;;10.07;5.15;;;;;;;27.16;32.49;100223.06;2213804;40;20038;-82
2021/07/21 13:49:02;;;;;;;8.10;5.28;;;;;;;27.05;32.73;100224.78;2213754;40;20034;-81
2021/07/21 13:50:34;;;;;;;7.68;5.25;;;;;;;27.06;32.89;100234.69;2209182;40;20046;-81
2021/07/21 13:52:08;;;;;;;8.52;4.80;;;;;;;27.13;32.20;100232.59;2212944;40;20042;-82
2021/07/21 13:53:39;;;;;;;7.80;5.10;;;;;;;27.26;31.49;100231.41;2213657;40;20037;-81
2021/07/21 13:55:11;;;;;;;6.72;4.60;;;;;;;27.29;31.39;100232.84;2211283;40;20046;-82
2021/07/21 13:56:44;;;;;;;9.20;5.13;;;;;;;27.33;30.67;100221.13;2208769;40;20112;-81
2021/07/21 13:58:16;;;;;;;6.82;4.60;;;;;;;27.39;30.66;100231.06;2209396;40;20074;-82
2021/07/21 13:59:48;;;;;;;8.15;4.72;;;;;;;27.44;30.12;100227.59;2207488;40;20517;-80
2021/07/21 14:01:19;;;;;;;8.23;4.68;;;;;;;27.52;29.89;100224.41;2206985;40;20041;-81
2021/07/21 14:02:52;;;;;;;10.88;5.78;;;;;;;27.63;29.46;100227.31;2201933;40;20062;-81
2021/07/21 14:04:25;;;;;;;6.60;4.25;;;;;;;27.52;29.20;100223.59;2208550;40;20050;-81
2021/07/21 14:05:55;;;;;;;9.48;5.00;;;;;;;27.46;29.27;100227.34;2208310;40;20035;-81
2021/07/21 14:07:27;;;;;;;10.40;4.38;;;;;;;27.45;29.12;100217.44;2208835;40;20406;-81
2021/07/21 14:08:58;;;;;;;7.47;4.45;;;;;;;27.37;28.75;100221.44;2205372;40;20064;-81
2021/07/21 14:10:30;;;;;;;9.05;4.07;;;;;;;27.45;28.85;100218.28;2209414;40;20069;-82
2021/07/21 14:12:02;;;;;;;12.32;5.60;;;;;;;27.53;29.49;100220.59;2208120;40;20023;-83
2021/07/21 14:13:34;;;;;;;8.93;4.78;;;;;;;27.57;30.21;100229.16;2208315;40;20030;-82
2021/07/21 14:15:07;;;;;;;10.38;4.65;;;;;;;27.55;31.11;100223.06;2213713;40;20050;-83
2021/07/21 14:16:40;;;;;;;7.18;5.05;;;;;;;27.57;31.48;100225.59;2212952;40;20034;-82
2021/07/21 14:18:13;;;;;;;7.13;4.40;;;;;;;27.61;31.45;100221.22;2213273;40;20033;-82
2021/07/21 14:19:46;;;;;;;10.43;5.45;;;;;;;27.73;31.62;100219.19;2211187;40;20035;-82
2021/07/21 14:21:18;;;;;;;8.60;4.80;;;;;;;27.88;31.29;100218.56;2210073;40;20034;-80
2021/07/21 14:22:49;;;;;;;7.63;4.63;;;;;;;27.91;31.21;100214.47;2209802;40;20042;-80
2021/07/21 14:24:22;;;;;;;10.93;5.47;;;;;;;27.90;30.67;100213.66;2206823;40;20030;-80
2021/07/21 14:25:52;;;;;;;7.82;4.10;;;;;;;27.76;30.64;100212.38;2209001;40;20057;-81
2021/07/21 14:27:24;;;;;;;7.03;4.82;;;;;;;27.76;30.35;100212.38;2207960;40;20043;-82
2021/07/21 14:28:56;;;;;;;7.88;4.65;;;;;;;27.93;30.66;100212.31;2208413;40;20203;-82
2021/07/21 14:30:28;;;;;;;6.63;4.40;;;;;;;28.06;30.44;100211.88;2209304;40;20031;-80
2021/07/21 14:32:00;;;;;;;7.13;4.63;;;;;;;28.22;30.33;100215.66;2208677;40;20435;-81
2021/07/21 14:33:32;;;;;;;7.00;4.80;;;;;;;28.35;30.09;100206.19;2213529;40;20034;-82
2021/07/21 14:35:05;;;;;;;7.10;4.50;;;;;;;28.36;29.64;100207.84;2214934;40;20054;-82
2021/07/21 14:36:36;;;;;;;6.90;4.80;;;;;;;28.45;29.35;100203.53;2211145;40;20034;-83
2021/07/21 14:38:07;;;;;;;6.10;4.55;;;;;;;28.35;28.93;100203.44;2214586;40;20042;-81
2021/07/21 14:39:39;;;;;;;6.65;4.15;;;;;;;28.35;28.89;100202.63;2212552;40;20061;-82
2021/07/21 14:41:11;;;;;;;9.32;4.13;;;;;;;28.45;29.16;100205.47;2206519;40;20081;-82
2021/07/21 14:42:42;;;;;;;8.57;5.03;;;;;;;28.47;28.88;100212.34;2209675;40;20410;-83
2021/07/21 14:44:15;;;;;;;7.13;4.53;;;;;;;28.65;28.74;100213.06;2213100;40;20136;-82
2021/07/21 14:45:47;;;;;;;7.05;4.60;;;;;;;28.94;28.21;100212.78;2208658;40;20639;-82
2021/07/21 14:47:23;;;;;;;7.15;4.30;;;;;;;29.14;27.82;100200.25;2213448;40;20045;-82
2021/07/21 14:48:55;;;;;;;7.20;4.13;;;;;;;29.51;27.36;100202.16;2213463;40;20476;-82
2021/07/21 14:50:27;;;;;;;5.82;3.92;;;;;;;29.89;26.72;100197.34;2209601;40;20062;-82
2021/07/21 14:51:59;;;;;;;7.93;4.30;;;;;;;30.17;26.28;100196.09;2209769;40;20026;-82
2021/07/21 14:53:31;;;;;;;6.13;4.50;;;;;;;30.09;26.47;100191.09;2209497;40;20030;-81
2021/07/21 14:55:04;;;;;;;6.65;4.38;;;;;;;29.87;26.87;100200.38;2205982;40;20059;-82